createdAt,value
2022-09-26T00:01:50.170Z,13.94
2022-09-26T00:05:13.694Z,13.97
2022-09-26T00:08:32.332Z,13.99
2022-09-26T00:11:42.950Z,14.00
2022-09-26T00:15:08.498Z,13.99
2022-09-26T00:18:18.612Z,13.96
2022-09-26T00:21:30.466Z,13.94
2022-09-26T00:24:40.682Z,13.91
2022-09-26T00:31:37.420Z,13.88
2022-09-26T00:34:35.862Z,13.85
2022-09-26T00:37:45.922Z,13.81
2022-09-26T00:40:38.984Z,13.80
2022-09-26T00:43:49.135Z,13.81
2022-09-26T00:47:20.322Z,13.83
2022-09-26T00:50:09.250Z,13.84
2022-09-26T00:53:14.460Z,13.84
2022-09-26T00:56:27.384Z,13.81
2022-09-26T00:59:40.227Z,13.74
2022-09-26T01:02:47.043Z,13.67
2022-09-26T01:06:16.442Z,13.60
2022-09-26T01:09:28.532Z,13.54
2022-09-26T01:12:39.083Z,13.52
2022-09-26T01:15:31.931Z,13.51
2022-09-26T01:18:43.168Z,13.50
2022-09-26T01:26:08.183Z,13.51
2022-09-26T01:29:55.215Z,13.48
2022-09-26T01:33:22.317Z,13.47
2022-09-26T01:36:38.648Z,13.46
2022-09-26T01:39:56.093Z,13.43
2022-09-26T01:43:13.099Z,13.41
2022-09-26T01:46:31.147Z,13.40
2022-09-26T01:49:20.380Z,13.40
2022-09-26T01:52:34.411Z,13.39
2022-09-26T01:55:39.904Z,13.38
2022-09-26T01:58:52.931Z,13.36
2022-09-26T02:01:53.279Z,13.34
2022-09-26T02:05:17.891Z,13.29
2022-09-26T02:08:44.065Z,13.18
2022-09-26T02:15:59.250Z,12.97
2022-09-26T02:19:11.592Z,12.91
2022-09-26T02:22:38.997Z,12.86
2022-09-26T02:25:49.274Z,12.80
2022-09-26T02:29:17.728Z,12.73
2022-09-26T02:32:29.014Z,12.64
2022-09-26T02:35:46.438Z,12.56
2022-09-26T02:43:01.515Z,12.43
2022-09-26T02:46:40.882Z,12.39
2022-09-26T02:49:57.860Z,12.38
2022-09-26T02:53:12.190Z,12.38
2022-09-26T02:56:16.622Z,12.37
2022-09-26T02:59:35.328Z,12.38
2022-09-26T03:02:34.151Z,12.37
2022-09-26T03:09:12.926Z,12.27
2022-09-26T03:12:07.369Z,12.24
2022-09-26T03:15:39.677Z,12.21
2022-09-26T03:19:04.991Z,12.20
2022-09-26T03:22:52.127Z,12.20
2022-09-26T03:34:07.309Z,12.20
2022-09-26T03:37:35.211Z,12.18
2022-09-26T03:40:46.677Z,12.17
2022-09-26T03:43:55.113Z,12.16
2022-09-26T03:47:05.697Z,12.15
2022-09-26T03:54:14.249Z,12.14
2022-09-26T03:57:19.019Z,12.12
2022-09-26T04:00:29.203Z,12.10
2022-09-26T04:07:40.529Z,12.00
2022-09-26T04:14:35.143Z,11.94
2022-09-26T04:17:59.525Z,11.92
2022-09-26T04:21:12.785Z,11.92
2022-09-26T04:24:22.884Z,11.90
2022-09-26T04:31:35.814Z,11.79
2022-09-26T04:35:05.200Z,11.70
2022-09-26T04:42:18.063Z,11.51
2022-09-26T04:49:29.403Z,11.34
2022-09-26T04:56:32.377Z,11.23
2022-09-26T04:59:43.001Z,11.20
2022-09-26T05:02:53.113Z,11.15
2022-09-26T05:10:04.514Z,11.04
2022-09-26T05:17:15.140Z,10.94
2022-09-26T05:20:29.530Z,10.90
2022-09-26T05:23:58.109Z,10.88
2022-09-26T05:27:08.902Z,10.84
2022-09-26T05:34:42.699Z,10.74
2022-09-26T05:38:00.519Z,10.70
2022-09-26T05:45:16.013Z,10.70
2022-09-26T05:48:42.895Z,10.73
2022-09-26T05:55:49.832Z,10.84
2022-09-26T05:59:05.695Z,10.87
2022-09-26T06:02:18.484Z,10.90
2022-09-26T06:09:35.653Z,10.94
2022-09-26T06:12:50.699Z,10.94
2022-09-26T06:15:43.523Z,10.94
2022-09-26T06:19:11.092Z,10.93
2022-09-26T06:26:37.872Z,10.92
2022-09-26T06:29:27.941Z,10.92
2022-09-26T06:32:39.471Z,10.92
2022-09-26T06:35:55.101Z,10.90
2022-09-26T06:47:13.426Z,10.82
2022-09-26T06:50:24.115Z,10.78
2022-09-26T06:54:20.192Z,10.73
2022-09-26T06:57:40.245Z,10.66
2022-09-26T07:00:36.812Z,10.62
2022-09-26T07:03:29.815Z,10.60
2022-09-26T07:10:41.211Z,10.63
2022-09-26T07:13:53.255Z,10.66
2022-09-26T07:17:03.326Z,10.67
2022-09-26T07:20:25.261Z,10.67
2022-09-26T07:23:38.257Z,10.77
2022-09-26T07:26:39.053Z,11.05
2022-09-26T07:29:32.982Z,11.35
2022-09-26T07:32:47.957Z,11.37
2022-09-26T07:35:57.739Z,11.70
2022-09-26T07:38:53.750Z,13.29
2022-09-26T07:41:46.901Z,14.57
2022-09-26T07:47:35.873Z,16.06
2022-09-26T07:50:15.287Z,16.94
2022-09-26T07:53:09.548Z,17.85
2022-09-26T07:56:10.656Z,18.31
2022-09-26T07:58:59.302Z,18.96
2022-09-26T08:01:47.586Z,19.40
2022-09-26T08:04:38.112Z,19.63
2022-09-26T08:07:08.771Z,19.89
2022-09-26T08:09:43.108Z,20.22
2022-09-26T08:12:37.680Z,20.84
2022-09-26T08:15:28.200Z,21.34
2022-09-26T08:18:07.243Z,21.47
2022-09-26T08:22:46.881Z,21.69
2022-09-26T08:25:30.240Z,21.16
2022-09-26T08:28:13.793Z,21.13
2022-09-26T08:30:44.465Z,21.55
2022-09-26T08:33:12.864Z,22.27
2022-09-26T08:35:40.925Z,22.19
2022-09-26T08:38:36.041Z,22.43
2022-09-26T08:41:34.815Z,22.29
2022-09-26T08:44:31.484Z,23.05
2022-09-26T08:47:23.123Z,23.82
2022-09-26T08:50:21.283Z,24.65
2022-09-26T08:52:51.461Z,25.25
2022-09-26T08:55:21.219Z,25.84
2022-09-26T08:57:52.551Z,26.57
2022-09-26T09:00:22.003Z,26.84
2022-09-26T09:03:37.125Z,27.00
2022-09-26T09:06:25.382Z,26.34
2022-09-26T09:08:55.946Z,26.13
2022-09-26T09:11:51.198Z,25.91
2022-09-26T09:14:40.489Z,25.88
2022-09-26T09:17:35.665Z,26.03
2022-09-26T09:20:28.526Z,26.45
2022-09-26T09:23:28.089Z,26.69
2022-09-26T09:29:49.412Z,27.28
2022-09-26T09:32:44.719Z,27.87
2022-09-26T09:35:25.513Z,28.24
2022-09-26T09:38:15.396Z,28.43
2022-09-26T09:41:08.159Z,28.14
2022-09-26T09:43:39.602Z,27.84
2022-09-26T09:46:14.867Z,26.43
2022-09-26T09:48:43.561Z,25.50
2022-09-26T09:51:27.332Z,24.77
2022-09-26T09:54:07.661Z,25.04
2022-09-26T09:56:40.295Z,25.25
2022-09-26T09:59:19.503Z,25.46
2022-09-26T10:02:12.592Z,26.55
2022-09-26T10:04:46.239Z,27.60
2022-09-26T10:07:18.503Z,27.91
2022-09-26T10:10:00.707Z,28.48
2022-09-26T10:12:56.748Z,27.80
2022-09-26T10:15:30.653Z,26.78
2022-09-26T10:18:26.472Z,26.37
2022-09-26T10:21:11.659Z,24.23
2022-09-26T10:23:41.643Z,22.27
2022-09-26T10:26:16.389Z,20.69
2022-09-26T10:28:46.287Z,19.67
2022-09-26T10:31:22.259Z,19.54
2022-09-26T10:34:05.153Z,22.48
2022-09-26T10:36:34.562Z,24.96
2022-09-26T10:39:24.301Z,26.34
2022-09-26T10:41:57.343Z,25.70
2022-09-26T10:44:26.580Z,25.07
2022-09-26T10:47:08.385Z,23.29
2022-09-26T10:49:45.416Z,21.96
2022-09-26T10:52:37.397Z,20.87
2022-09-26T10:55:10.935Z,20.46
2022-09-26T10:57:44.923Z,19.58
2022-09-26T11:00:18.202Z,18.65
2022-09-26T11:02:47.361Z,18.01
2022-09-26T11:05:37.362Z,17.53
2022-09-26T11:08:14.746Z,17.88
2022-09-26T11:11:15.371Z,19.39
2022-09-26T11:14:04.216Z,22.35
2022-09-26T11:16:38.495Z,25.10
2022-09-26T11:19:10.593Z,25.95
2022-09-26T11:21:42.477Z,25.40
2022-09-26T11:24:15.880Z,23.83
2022-09-26T11:26:49.450Z,22.64
2022-09-26T11:29:29.219Z,21.90
2022-09-26T11:32:04.925Z,24.76
2022-09-26T11:34:45.451Z,26.24
2022-09-26T11:37:33.103Z,25.29
2022-09-26T11:40:21.424Z,23.87
2022-09-26T11:43:02.095Z,22.76
2022-09-26T11:45:45.215Z,23.29
2022-09-26T11:48:51.152Z,25.76
2022-09-26T11:51:45.855Z,26.73
2022-09-26T11:54:32.135Z,27.33
2022-09-26T11:57:08.213Z,27.17
2022-09-26T11:59:52.734Z,27.38
2022-09-26T12:02:39.471Z,27.65
2022-09-26T12:05:27.056Z,29.15
2022-09-26T12:08:10.828Z,29.35
2022-09-26T12:10:43.423Z,27.41
2022-09-26T12:13:18.592Z,26.80
2022-09-26T12:15:54.531Z,25.13
2022-09-26T12:18:27.007Z,23.36
2022-09-26T12:21:06.115Z,21.73
2022-09-26T12:23:37.235Z,20.23
2022-09-26T12:26:10.769Z,19.46
2022-09-26T12:29:03.163Z,20.16
2022-09-26T12:31:47.829Z,23.00
2022-09-26T12:34:37.254Z,25.50
2022-09-26T12:37:12.555Z,27.08
2022-09-26T12:39:52.080Z,28.14
2022-09-26T12:42:29.075Z,28.50
2022-09-26T12:45:10.815Z,27.57
2022-09-26T12:47:52.450Z,26.70
2022-09-26T12:50:33.450Z,25.01
2022-09-26T12:53:23.456Z,23.23
2022-09-26T12:55:57.136Z,21.93
2022-09-26T12:58:33.629Z,20.81
2022-09-26T13:01:06.014Z,19.87
2022-09-26T13:03:50.886Z,19.07
2022-09-26T13:06:32.725Z,18.21
2022-09-26T13:09:12.322Z,17.48
2022-09-26T13:11:46.968Z,16.97
2022-09-26T13:14:26.842Z,16.68
2022-09-26T13:17:06.004Z,16.78
2022-09-26T13:19:40.986Z,16.96
2022-09-26T13:22:17.723Z,16.82
2022-09-26T13:24:49.650Z,16.86
2022-09-26T13:27:19.887Z,17.39
2022-09-26T13:29:50.954Z,19.20
2022-09-26T13:32:23.604Z,21.62
2022-09-26T13:34:55.042Z,23.42
2022-09-26T13:37:31.114Z,24.53
2022-09-26T13:40:04.934Z,24.50
2022-09-26T13:42:38.141Z,22.58
2022-09-26T13:45:16.395Z,21.03
2022-09-26T13:47:48.717Z,19.95
2022-09-26T13:50:22.713Z,19.37
2022-09-26T13:52:57.588Z,18.87
2022-09-26T13:55:26.024Z,18.49
2022-09-26T13:58:06.841Z,18.29
2022-09-26T14:00:48.510Z,18.25
2022-09-26T14:03:39.569Z,18.14
2022-09-26T14:06:08.541Z,17.95
2022-09-26T14:08:55.108Z,17.83
2022-09-26T14:11:29.358Z,17.50
2022-09-26T14:14:17.488Z,17.25
2022-09-26T14:16:46.084Z,17.10
2022-09-26T14:19:28.686Z,17.01
2022-09-26T14:22:01.933Z,16.89
2022-09-26T14:24:32.941Z,16.72
2022-09-26T14:27:24.368Z,16.43
2022-09-26T14:29:53.066Z,16.11
2022-09-26T14:32:22.847Z,15.91
2022-09-26T14:34:55.660Z,15.77
2022-09-26T14:37:27.338Z,15.64
2022-09-26T14:40:20.812Z,15.45
2022-09-26T14:42:50.965Z,15.27
2022-09-26T14:45:21.492Z,15.15
2022-09-26T14:47:57.331Z,15.09
2022-09-26T14:50:34.958Z,15.14
2022-09-26T14:53:13.390Z,15.24
2022-09-26T14:56:05.994Z,15.37
2022-09-26T14:59:25.853Z,15.49
2022-09-26T15:05:59.584Z,15.35
2022-09-26T15:08:47.892Z,15.23
2022-09-26T15:11:24.122Z,15.24
2022-09-26T15:13:54.758Z,15.16
2022-09-26T15:16:31.891Z,15.17
2022-09-26T15:19:05.416Z,15.24
2022-09-26T15:21:39.766Z,15.38
2022-09-26T15:24:24.451Z,15.50
2022-09-26T15:26:53.116Z,15.55
2022-09-26T15:29:24.252Z,15.51
2022-09-26T15:31:52.634Z,15.35
2022-09-26T15:34:24.329Z,15.16
2022-09-26T15:37:17.092Z,15.04
2022-09-26T15:40:13.368Z,15.11
2022-09-26T15:43:07.416Z,15.19
2022-09-26T15:45:50.066Z,15.23
2022-09-26T15:48:42.643Z,15.25
2022-09-26T15:51:37.027Z,15.24
2022-09-26T15:54:12.200Z,15.18
2022-09-26T15:56:42.665Z,15.08
2022-09-26T15:59:17.926Z,14.90
2022-09-26T16:02:19.569Z,14.77
2022-09-26T16:05:12.647Z,14.63
2022-09-26T16:07:43.141Z,14.55
2022-09-26T16:10:25.751Z,14.47
2022-09-26T16:13:36.340Z,14.32
2022-09-26T16:16:08.909Z,14.23
2022-09-26T16:19:30.285Z,14.13
2022-09-26T16:22:20.215Z,14.07
2022-09-26T16:25:19.050Z,14.06
2022-09-26T16:28:22.242Z,14.05
2022-09-26T16:31:24.329Z,14.08
2022-09-26T16:33:57.281Z,14.09
2022-09-26T16:37:17.959Z,14.05
2022-09-26T16:40:01.715Z,13.99
2022-09-26T16:43:21.604Z,13.98
2022-09-26T16:46:13.208Z,13.97
2022-09-26T16:48:52.720Z,14.04
2022-09-26T16:51:21.493Z,14.04
2022-09-26T16:58:00.741Z,13.84
2022-09-26T17:01:16.904Z,13.77
2022-09-26T17:04:11.639Z,13.73
2022-09-26T17:10:49.232Z,13.56
2022-09-26T17:13:35.827Z,13.47
2022-09-26T17:16:27.498Z,13.41
2022-09-26T17:19:16.881Z,13.35
2022-09-26T17:21:48.664Z,13.34
2022-09-26T17:24:55.511Z,13.34
2022-09-26T17:27:30.014Z,13.33
2022-09-26T17:30:18.375Z,13.30
2022-09-26T17:33:11.317Z,13.28
2022-09-26T17:36:02.579Z,13.25
2022-09-26T17:38:42.761Z,13.22
2022-09-26T17:41:29.212Z,13.19
2022-09-26T17:44:37.123Z,13.16
2022-09-26T17:47:11.408Z,13.14
2022-09-26T17:50:23.350Z,13.11
2022-09-26T17:53:28.634Z,13.07
2022-09-26T17:56:18.050Z,13.02
2022-09-26T17:59:11.371Z,12.96
2022-09-26T18:02:17.224Z,12.90
2022-09-26T18:05:22.062Z,12.86
2022-09-26T18:08:16.867Z,12.82
2022-09-26T18:11:13.715Z,12.77
2022-09-26T18:14:02.883Z,12.72
2022-09-26T18:16:50.836Z,12.67
2022-09-26T18:19:38.655Z,12.64
2022-09-26T18:22:35.556Z,12.61
2022-09-26T18:25:33.976Z,12.58
2022-09-26T18:28:23.413Z,12.55
2022-09-26T18:31:23.108Z,12.51
2022-09-26T18:34:31.495Z,12.46
2022-09-26T18:37:39.791Z,12.42
2022-09-26T18:40:39.968Z,12.40
2022-09-26T18:43:41.748Z,12.39
2022-09-26T18:46:48.593Z,12.40
2022-09-26T18:49:57.709Z,12.41
2022-09-26T18:52:48.404Z,12.39
2022-09-26T18:56:08.619Z,12.38
2022-09-26T18:58:51.306Z,12.33
2022-09-26T19:01:42.283Z,12.26
2022-09-26T19:04:39.595Z,12.18
2022-09-26T19:07:37.545Z,12.11
2022-09-26T19:10:35.746Z,12.03
2022-09-26T19:13:46.011Z,11.99
2022-09-26T19:16:29.414Z,11.98
2022-09-26T19:19:38.050Z,11.99
2022-09-26T19:22:47.342Z,12.02
2022-09-26T19:26:01.662Z,12.04
2022-09-26T19:28:53.884Z,12.05
2022-09-26T19:31:42.684Z,12.07
2022-09-26T19:34:54.265Z,12.06
2022-09-26T19:37:44.926Z,12.03
2022-09-26T19:41:10.240Z,11.99
2022-09-26T19:44:19.430Z,11.98
2022-09-26T19:47:33.379Z,11.93
2022-09-26T19:50:43.570Z,11.86
2022-09-26T19:53:51.760Z,11.77
2022-09-26T19:56:59.846Z,11.69
2022-09-26T20:00:10.702Z,11.61
2022-09-26T20:03:19.927Z,11.53
2022-09-26T20:06:20.688Z,11.46
2022-09-26T20:09:31.750Z,11.40
2022-09-26T20:12:23.124Z,11.33
2022-09-26T20:15:16.483Z,11.27
2022-09-26T20:18:15.396Z,11.22
2022-09-26T20:21:13.252Z,11.16
2022-09-26T20:24:06.845Z,11.11
2022-09-26T20:27:17.763Z,11.09
2022-09-26T20:30:46.526Z,11.10
2022-09-26T20:33:48.115Z,11.11
2022-09-26T20:41:18.985Z,11.16
2022-09-26T20:48:29.120Z,11.23
2022-09-26T20:51:37.432Z,11.24
2022-09-26T20:54:28.971Z,11.23
2022-09-26T20:57:53.112Z,11.20
2022-09-26T21:01:10.906Z,11.13
2022-09-26T21:04:19.076Z,11.09
2022-09-26T21:07:58.237Z,11.05
2022-09-26T21:11:22.526Z,11.00
2022-09-26T21:15:11.316Z,10.94
2022-09-26T21:18:24.005Z,10.89
2022-09-26T21:21:33.179Z,10.84
2022-09-26T21:24:29.303Z,10.80
2022-09-26T21:27:37.505Z,10.76
2022-09-26T21:34:56.151Z,10.70
2022-09-26T21:38:04.367Z,10.69
2022-09-26T21:41:12.915Z,10.68
2022-09-26T21:44:26.825Z,10.68
2022-09-26T21:47:54.637Z,10.68
2022-09-26T21:50:47.466Z,10.68
2022-09-26T21:53:53.303Z,10.69
2022-09-26T22:05:17.804Z,10.78
2022-09-26T22:08:33.871Z,10.80
2022-09-26T22:11:44.143Z,10.82
2022-09-26T22:14:50.946Z,10.84
2022-09-26T22:18:15.300Z,10.85
2022-09-26T22:21:23.462Z,10.88
2022-09-26T22:24:32.787Z,10.89
2022-09-26T22:27:56.977Z,10.91
2022-09-26T22:35:07.188Z,10.91
2022-09-26T22:42:16.952Z,10.92
2022-09-26T22:46:03.702Z,10.92
2022-09-26T22:49:24.348Z,10.91
2022-09-26T22:52:47.059Z,10.89
2022-09-26T22:59:48.696Z,10.84
2022-09-26T23:03:36.454Z,10.79
2022-09-26T23:06:44.507Z,10.69
2022-09-26T23:13:59.116Z,10.56
2022-09-26T23:17:28.519Z,10.51
2022-09-26T23:24:38.083Z,10.42
2022-09-26T23:27:46.372Z,10.41
2022-09-26T23:30:54.519Z,10.42
2022-09-26T23:34:04.533Z,10.43
2022-09-26T23:36:57.349Z,10.45
2022-09-26T23:40:07.213Z,10.49
2022-09-26T23:42:57.770Z,10.52
2022-09-26T23:46:06.880Z,10.56
2022-09-26T23:48:57.868Z,10.58
2022-09-26T23:52:07.041Z,10.61
2022-09-26T23:55:16.329Z,10.65
2022-09-26T23:58:24.547Z,10.66
